Mountain Village, Alaska
Current Conditions -  °F | °C
As of 4:56 AM on Wednesday 28 Jan 2015 (Local Time) from PAMO Reporting Station
Clear Clear  
Wind Chill: -26°   Ceiling: Unl
Heat Index: -21°   Visibility: 10mi
Dew Point: -26°   Wind: 5mph
Humidity: 62%   Direction: 360°N
Pressure: 30.22"   Gusts: NA
Location:  62.09°N, 163.73°W
Report Text: PAMO 281356Z AUTO 36004KT 10SM CLR M21/M26 A3022 RMK AO2 TSNO T12051261 SLP117 $
Loading
Personal Weather Stations






























Interactive Weather Map New forecast layout! Learn more

10-Day Weather Forecast

Advertisements
Track Severe Weather on mobile